Belle Chasse — WDG2912 — position and weather

sailwx.info

Track history (hours):
 
Tides and Currents Weather Stations Pressure Air Temp Water Temp Dewpoint Dewpoint Depression Visibility Wind Speed Wind Dir Waves Ship Positions

Belle Chasse

Owner: Higman Barge Lines, Inc, Orange, TX. More information available from US FCC via Universal Licensing System and Coast Guard Vessel Documentation Center.

Last reported at 2014-Oct-31 07:03 UTC. Time now 2014-Oct-31 22:22 UTC.
Position N 29°30' W 094°33'.

Length 26 m; draft 3 m.

Type: Towing. MMSI: 367520550.

Date/timePositionNaut miles runAvg speedWind from/ knotsBaromVisibWave heightAir tempDewpointWater temp
2014-Oct-31 07:03N 29°30' W 094°33'16 3.4
2014-Oct-31 02:14N 29°28' W 094°51'5 6.6
2014-Oct-31 01:33N 29°31' W 094°53'7 6.9
2014-Oct-31 00:33N 29°37' W 094°58'7 6.6
2014-Oct-30 23:33N 29°43' W 095°01'4 4.1
2014-Oct-30 22:31N 29°46' W 095°05'5 5.4
2014-Oct-30 21:30N 29°45' W 095°11'4 0.2
2014-Oct-29 23:33N 29°43' W 095°15'4 4.1
2014-Oct-29 22:33N 29°45' W 095°11'3 0.8
2014-Oct-29 18:30N 29°46' W 095°07'1 1.2
2014-Oct-29 17:32N 29°45' W 095°07'0 0.0
2014-Oct-29 16:32N 29°45' W 095°07'0 0.0
2014-Oct-29 15:32N 29°45' W 095°07'0 0.3
2014-Oct-29 14:33N 29°45' W 095°06'1 0.2
2014-Oct-29 07:33N 29°46' W 095°07'0 0.0
2014-Oct-29 06:12N 29°46' W 095°07'1 0.1
2014-Oct-28 20:33N 29°45' W 095°06'2 2.1
2014-Oct-28 19:33N 29°44' W 095°08'5 1.3
2014-Oct-28 15:24N 29°44' W 095°14'4 4.3
2014-Oct-28 14:33N 29°45' W 095°10'4 3.9
2014-Oct-28 13:33N 29°46' W 095°06'16 1.2
2014-Oct-28 00:20N 29°33' W 094°54'7 8.7
2014-Oct-27 23:29N 29°26' W 094°50'5 0.1
2014-Oct-26 06:10N 29°24' W 094°45'3 1.8
2014-Oct-26 04:19N 29°22' W 094°48'2 0.5
2014-Oct-25 23:31N 29°23' W 094°46'1 0.1
2014-Oct-25 14:33N 29°24' W 094°45'0 0.0
2014-Oct-25 13:27N 29°24' W 094°45'0 0.0
2014-Oct-25 12:21N 29°24' W 094°45'4 4.6
2014-Oct-25 11:33N 29°21' W 094°48'6 6.0
2014-Oct-25 10:33N 29°17' W 094°53'6 2.0
2014-Oct-25 07:32N 29°21' W 094°48'39 2.3
2014-Oct-24 14:17N 29°41' W 094°09'4 4.2
2014-Oct-24 13:13N 29°44' W 094°05'  
Track history (hours):
 
Tides and Currents Weather Stations Pressure Air Temp Water Temp Dewpoint Dewpoint Depression Visibility Wind Speed Wind Dir Waves Ship Positions

Belle Chasse

Owner: Higman Barge Lines, Inc, Orange, TX. More information available from US FCC via Universal Licensing System and Coast Guard Vessel Documentation Center.

Last reported at 2014-Oct-31 07:03 UTC. Time now 2014-Oct-31 22:22 UTC.
Position N 29°30' W 094°33'.

Length 26 m; draft 3 m.

Type: Towing. MMSI: 367520550.

Date/timePositionNaut miles runAvg speedWind from/ knotsBaromVisibWave heightAir tempDewpointWater temp
2014-Oct-31 07:03N 29°30' W 094°33'16 3.4
2014-Oct-31 02:14N 29°28' W 094°51'5 6.6
2014-Oct-31 01:33N 29°31' W 094°53'7 6.9
2014-Oct-31 00:33N 29°37' W 094°58'7 6.6
2014-Oct-30 23:33N 29°43' W 095°01'4 4.1
2014-Oct-30 22:31N 29°46' W 095°05'5 5.4
2014-Oct-30 21:30N 29°45' W 095°11'4 0.2
2014-Oct-29 23:33N 29°43' W 095°15'4 4.1
2014-Oct-29 22:33N 29°45' W 095°11'3 0.8
2014-Oct-29 18:30N 29°46' W 095°07'1 1.2
2014-Oct-29 17:32N 29°45' W 095°07'0 0.0
2014-Oct-29 16:32N 29°45' W 095°07'0 0.0
2014-Oct-29 15:32N 29°45' W 095°07'0 0.3
2014-Oct-29 14:33N 29°45' W 095°06'1 0.2
2014-Oct-29 07:33N 29°46' W 095°07'0 0.0
2014-Oct-29 06:12N 29°46' W 095°07'1 0.1
2014-Oct-28 20:33N 29°45' W 095°06'2 2.1
2014-Oct-28 19:33N 29°44' W 095°08'5 1.3
2014-Oct-28 15:24N 29°44' W 095°14'4 4.3
2014-Oct-28 14:33N 29°45' W 095°10'4 3.9
2014-Oct-28 13:33N 29°46' W 095°06'16 1.2
2014-Oct-28 00:20N 29°33' W 094°54'7 8.7
2014-Oct-27 23:29N 29°26' W 094°50'5 0.1
2014-Oct-26 06:10N 29°24' W 094°45'3 1.8
2014-Oct-26 04:19N 29°22' W 094°48'2 0.5
2014-Oct-25 23:31N 29°23' W 094°46'1 0.1
2014-Oct-25 14:33N 29°24' W 094°45'0 0.0
2014-Oct-25 13:27N 29°24' W 094°45'0 0.0
2014-Oct-25 12:21N 29°24' W 094°45'4 4.6
2014-Oct-25 11:33N 29°21' W 094°48'6 6.0
2014-Oct-25 10:33N 29°17' W 094°53'6 2.0
2014-Oct-25 07:32N 29°21' W 094°48'39 2.3
2014-Oct-24 14:17N 29°41' W 094°09'4 4.2
2014-Oct-24 13:13N 29°44' W 094°05'  

Dump ship's entire track history